Time;durP1;ratioP1;P1;durP2;ratioP2;P2;SDS_P1;SDS_P2;PMS_P1;PMS_P2;Temp;Humidity;BMP_temperature;BMP_pressure;BME280_temperature;BME280_humidity;BME280_pressure;Samples;Min_cycle;Max_cycle;Signal;HPM_P1;HPM_P2
2024/02/14 00:00:24;;;;;;;15.93;6.13;;;2.10;99.90;;;;;;5062610;28;20060;-62
2024/02/14 00:02:52;;;;;;;22.15;6.10;;;2.10;99.90;;;;;;5063070;28;20125;-61
2024/02/14 00:05:19;;;;;;;16.95;5.47;;;2.10;99.90;;;;;;5062932;28;20136;-62
2024/02/14 00:07:46;;;;;;;13.20;6.10;;;2.10;99.90;;;;;;5062547;28;20094;-60
2024/02/14 00:10:13;;;;;;;14.20;6.25;;;2.10;99.90;;;;;;5063491;28;20052;-60
2024/02/14 00:12:40;;;;;;;17.58;7.18;;;2.10;99.90;;;;;;5063979;28;20052;-65
2024/02/14 00:15:07;;;;;;;9.73;5.93;;;2.10;99.90;;;;;;5062971;28;20079;-60
2024/02/14 00:17:35;;;;;;;11.57;6.95;;;2.00;99.90;;;;;;5066429;28;20092;-62
2024/02/14 00:20:03;;;;;;;18.17;9.43;;;2.10;99.90;;;;;;5066552;28;20049;-60
2024/02/14 00:22:31;;;;;;;17.40;6.55;;;2.10;99.90;;;;;;5066579;28;20105;-62
2024/02/14 00:24:58;;;;;;;9.00;5.57;;;2.10;99.90;;;;;;5066600;28;20048;-60
2024/02/14 00:27:26;;;;;;;17.30;6.88;;;2.10;99.90;;;;;;5066898;28;20105;-62
2024/02/14 00:29:54;;;;;;;16.92;7.90;;;2.10;99.90;;;;;;5067498;28;21010;-61
2024/02/14 00:32:22;;;;;;;11.52;6.13;;;2.00;99.90;;;;;;5067320;28;20053;-61
2024/02/14 00:34:49;;;;;;;13.98;5.72;;;2.00;99.90;;;;;;5098266;27;20084;-64
2024/02/14 00:37:18;;;;;;;17.52;6.75;;;2.00;99.90;;;;;;5066467;28;20051;-61
2024/02/14 00:39:48;;;;;;;12.82;6.80;;;2.00;99.90;;;;;;5066847;28;20935;-60
2024/02/14 00:42:16;;;;;;;12.80;5.63;;;2.00;99.90;;;;;;5066218;28;20044;-58
2024/02/14 00:44:43;;;;;;;18.73;7.75;;;2.10;99.90;;;;;;5066791;28;20117;-59
2024/02/14 00:47:10;;;;;;;11.65;6.18;;;2.10;99.90;;;;;;5066630;28;20772;-60
2024/02/14 00:49:39;;;;;;;13.25;6.85;;;2.10;99.90;;;;;;5066205;28;20059;-60
2024/02/14 00:52:06;;;;;;;19.67;7.70;;;2.10;99.90;;;;;;5065805;28;20051;-58
2024/02/14 00:54:34;;;;;;;21.13;7.93;;;2.00;99.90;;;;;;5066456;28;20048;-63
2024/02/14 00:57:01;;;;;;;16.55;7.95;;;2.10;99.90;;;;;;5065817;28;20186;-62
2024/02/14 00:59:29;;;;;;;11.52;7.07;;;2.00;99.90;;;;;;5067586;28;20071;-61
2024/02/14 01:01:56;;;;;;;18.52;8.43;;;2.00;99.90;;;;;;5065837;28;20157;-59
2024/02/14 01:04:23;;;;;;;14.88;8.18;;;2.00;99.90;;;;;;5066215;28;20044;-61
2024/02/14 01:06:51;;;;;;;15.23;6.82;;;2.00;99.90;;;;;;5066906;28;20059;-61
2024/02/14 01:09:18;;;;;;;20.60;6.80;;;2.00;99.90;;;;;;5066511;28;20557;-61
2024/02/14 01:11:45;;;;;;;13.20;7.93;;;2.00;99.90;;;;;;5065893;28;21553;-59
2024/02/14 01:14:13;;;;;;;12.05;5.65;;;2.00;99.90;;;;;;5066091;28;20405;-60
2024/02/14 01:16:45;;;;;;;16.95;5.97;;;2.00;99.90;;;;;;5064816;28;20044;-61
2024/02/14 01:19:12;;;;;;;14.95;6.03;;;2.00;99.90;;;;;;5065675;28;20048;-62
2024/02/14 01:21:40;;;;;;;19.15;8.57;;;2.00;99.90;;;;;;5066124;28;20059;-61
2024/02/14 01:24:08;;;;;;;16.63;6.80;;;1.90;99.90;;;;;;5066401;28;20151;-59
2024/02/14 01:26:35;;;;;;;12.80;5.75;;;1.90;99.90;;;;;;5065909;28;20043;-58
2024/02/14 01:29:03;;;;;;;16.70;7.78;;;1.90;99.90;;;;;;5065584;28;20054;-60
2024/02/14 01:31:30;;;;;;;13.90;6.43;;;1.90;99.90;;;;;;5065478;28;20048;-58
2024/02/14 01:33:57;;;;;;;15.57;6.95;;;1.90;99.90;;;;;;5065262;28;20592;-61
2024/02/14 01:36:24;;;;;;;21.63;6.93;;;1.90;99.90;;;;;;5065606;28;20155;-62
2024/02/14 01:38:51;;;;;;;16.02;8.27;;;1.90;99.90;;;;;;5066284;28;20064;-62
2024/02/14 01:41:19;;;;;;;16.25;6.97;;;1.90;99.90;;;;;;5065713;28;20044;-62
2024/02/14 01:43:46;;;;;;;16.70;7.45;;;1.90;99.90;;;;;;5065258;28;20045;-61
2024/02/14 01:46:13;;;;;;;16.75;6.68;;;1.90;99.90;;;;;;5065725;28;20109;-60
2024/02/14 01:48:42;;;;;;;18.73;7.20;;;1.90;99.90;;;;;;5064151;28;20049;-60
2024/02/14 01:51:12;;;;;;;21.00;6.38;;;1.80;99.90;;;;;;5065824;28;20044;-60
2024/02/14 01:53:40;;;;;;;13.13;6.07;;;1.80;99.90;;;;;;5065303;28;20059;-64
2024/02/14 01:56:07;;;;;;;13.98;6.60;;;1.80;99.90;;;;;;5065544;28;20145;-60
2024/02/14 01:58:35;;;;;;;16.30;6.63;;;1.80;99.90;;;;;;5064890;28;20045;-59
2024/02/14 02:01:03;;;;;;;21.67;7.22;;;1.80;99.90;;;;;;5065028;28;20052;-61
2024/02/14 02:03:35;;;;;;;26.27;7.38;;;1.80;99.90;;;;;;5065773;28;20052;-62
2024/02/14 02:06:03;;;;;;;16.80;6.57;;;1.70;99.90;;;;;;5065247;28;20047;-63
2024/02/14 02:08:30;;;;;;;19.15;5.97;;;1.70;99.90;;;;;;5065103;28;20044;-60
2024/02/14 02:10:57;;;;;;;22.95;7.13;;;1.70;99.90;;;;;;5063355;28;20930;-60
2024/02/14 02:13:25;;;;;;;14.93;5.35;;;1.70;99.90;;;;;;5064826;28;20131;-61
2024/02/14 02:15:53;;;;;;;21.83;7.72;;;1.70;99.90;;;;;;5065110;28;20041;-60
2024/02/14 02:18:20;;;;;;;14.27;7.22;;;1.70;99.90;;;;;;5064899;28;20867;-59
2024/02/14 02:20:47;;;;;;;22.70;7.43;;;1.70;99.90;;;;;;5064763;28;20691;-63
2024/02/14 02:23:14;;;;;;;22.58;7.03;;;1.70;99.90;;;;;;5064457;28;20611;-63
2024/02/14 02:25:42;;;;;;;22.63;6.45;;;1.70;99.90;;;;;;5064449;28;20048;-61
2024/02/14 02:28:10;;;;;;;18.10;6.90;;;1.70;99.90;;;;;;5064292;28;20119;-61
2024/02/14 02:30:37;;;;;;;27.38;8.02;;;1.70;99.90;;;;;;5063586;28;20055;-62
2024/02/14 02:33:05;;;;;;;21.42;8.05;;;1.60;99.90;;;;;;5063544;28;20701;-60
2024/02/14 02:35:33;;;;;;;17.15;6.78;;;1.60;99.90;;;;;;5064564;28;20048;-61
2024/02/14 02:38:01;;;;;;;16.50;6.10;;;1.70;99.90;;;;;;5063902;28;20044;-60
2024/02/14 02:40:28;;;;;;;18.63;7.25;;;1.70;99.90;;;;;;5064108;28;20423;-61
2024/02/14 02:42:55;;;;;;;12.93;6.00;;;1.60;99.90;;;;;;5063202;28;20059;-58
2024/02/14 02:45:22;;;;;;;15.30;6.45;;;1.60;99.90;;;;;;5060913;28;20044;-60
2024/02/14 02:47:52;;;;;;;16.83;5.80;;;1.60;99.90;;;;;;5063639;28;20178;-61
2024/02/14 02:50:21;;;;;;;27.70;7.78;;;1.60;99.90;;;;;;5063368;28;20052;-62
2024/02/14 02:52:48;;;;;;;17.80;9.55;;;1.60;99.90;;;;;;5063994;28;20075;-61
2024/02/14 02:55:18;;;;;;;21.48;8.95;;;1.60;99.90;;;;;;5063487;28;20070;-58
2024/02/14 02:57:45;;;;;;;15.18;4.82;;;1.50;99.90;;;;;;5063331;28;20582;-61
2024/02/14 03:00:13;;;;;;;16.23;5.68;;;1.50;99.90;;;;;;5064164;28;20075;-61
2024/02/14 03:02:46;;;;;;;13.00;5.18;;;1.50;99.90;;;;;;5063644;28;20043;-59
2024/02/14 03:05:17;;;;;;;10.77;4.30;;;1.50;99.90;;;;;;5061929;28;20547;-62
2024/02/14 03:07:48;;;;;;;14.90;4.88;;;1.50;99.90;;;;;;5063239;28;20174;-60
2024/02/14 03:10:17;;;;;;;13.52;6.10;;;1.50;99.90;;;;;;5063950;28;20032;-58
2024/02/14 03:12:48;;;;;;;13.90;4.68;;;1.50;99.90;;;;;;5063522;28;20178;-60
2024/02/14 03:15:16;;;;;;;17.55;6.32;;;1.50;99.90;;;;;;5063939;28;20048;-59
2024/02/14 03:17:44;;;;;;;9.45;4.70;;;1.50;99.90;;;;;;5063088;28;20076;-63
2024/02/14 03:20:15;;;;;;;14.98;4.25;;;1.50;99.90;;;;;;5061754;28;20090;-58
2024/02/14 03:22:45;;;;;;;10.60;4.10;;;1.50;99.90;;;;;;5064354;28;20040;-58
2024/02/14 03:25:19;;;;;;;13.40;4.68;;;1.50;99.90;;;;;;5062662;28;20075;-61
2024/02/14 03:27:52;;;;;;;10.18;4.30;;;1.50;99.90;;;;;;5064146;28;20139;-58
2024/02/14 03:30:20;;;;;;;12.10;5.55;;;1.50;99.90;;;;;;5063831;28;20130;-64
2024/02/14 03:32:47;;;;;;;17.95;5.10;;;1.50;99.90;;;;;;5063980;28;20459;-59
2024/02/14 03:35:15;;;;;;;19.63;5.20;;;1.50;99.90;;;;;;5063825;28;20043;-59
2024/02/14 03:37:43;;;;;;;11.00;4.80;;;1.50;99.90;;;;;;5063016;28;20403;-65
2024/02/14 03:40:11;;;;;;;16.10;4.07;;;1.60;99.90;;;;;;5063538;28;20075;-61
2024/02/14 03:42:41;;;;;;;12.75;4.13;;;1.60;99.90;;;;;;5063379;28;20805;-61
2024/02/14 03:45:09;;;;;;;9.05;3.72;;;1.60;99.90;;;;;;5063891;28;20047;-61
2024/02/14 03:47:39;;;;;;;9.32;3.00;;;1.60;99.90;;;;;;5063131;28;20037;-61
2024/02/14 03:50:08;;;;;;;12.48;4.10;;;1.60;99.90;;;;;;5063005;28;20056;-58
2024/02/14 03:52:35;;;;;;;15.73;4.60;;;1.60;99.90;;;;;;5062866;28;20056;-60
2024/02/14 03:55:03;;;;;;;9.23;5.38;;;1.60;99.90;;;;;;5063010;28;20101;-59
2024/02/14 03:57:30;;;;;;;16.95;4.82;;;1.70;99.90;;;;;;5063141;28;20044;-57
2024/02/14 04:00:03;;;;;;;13.93;4.22;;;1.70;99.90;;;;;;5063565;28;20415;-60
2024/02/14 04:02:37;;;;;;;8.90;3.40;;;1.70;99.90;;;;;;5063313;28;20078;-60
2024/02/14 04:05:07;;;;;;;13.90;4.50;;;1.70;99.90;;;;;;5062622;28;20440;-59
2024/02/14 04:07:37;;;;;;;17.52;4.45;;;1.80;99.90;;;;;;5062738;28;20126;-62
2024/02/14 04:10:04;;;;;;;13.98;4.40;;;1.80;99.90;;;;;;5063681;28;20391;-59
2024/02/14 04:12:32;;;;;;;9.85;4.43;;;1.80;99.90;;;;;;5062957;28;20044;-60
2024/02/14 04:14:59;;;;;;;22.38;4.88;;;1.80;99.90;;;;;;5063439;28;20163;-60
2024/02/14 04:17:26;;;;;;;9.15;3.80;;;1.80;99.90;;;;;;5063603;28;20040;-60
2024/02/14 04:19:53;;;;;;;11.38;4.05;;;1.70;99.90;;;;;;5063221;28;20072;-60
2024/02/14 04:22:21;;;;;;;15.48;4.03;;;1.80;99.90;;;;;;5062956;28;20040;-60
2024/02/14 04:24:48;;;;;;;6.32;3.88;;;1.70;99.90;;;;;;5063124;28;20048;-62
2024/02/14 04:27:14;;;;;;;15.90;4.38;;;1.80;99.90;;;;;;5062829;28;20040;-61
2024/02/14 04:29:46;;;;;;;18.85;4.68;;;1.70;99.90;;;;;;5063155;28;20051;-59
2024/02/14 04:32:14;;;;;;;11.15;4.43;;;1.70;99.90;;;;;;5063150;28;20113;-62
2024/02/14 04:34:43;;;;;;;16.30;6.57;;;1.70;99.90;;;;;;5062734;28;20512;-60
2024/02/14 04:37:13;;;;;;;16.67;6.53;;;1.70;99.90;;;;;;5063027;28;20055;-62
2024/02/14 04:39:40;;;;;;;10.07;4.80;;;1.70;99.90;;;;;;5063095;28;20875;-61
2024/02/14 04:42:07;;;;;;;10.20;3.75;;;1.70;99.90;;;;;;5063390;28;20048;-58
2024/02/14 04:44:34;;;;;;;10.88;4.07;;;1.60;99.90;;;;;;5060745;28;20052;-62
2024/02/14 04:47:01;;;;;;;10.93;5.22;;;1.50;99.90;;;;;;5062060;28;20109;-60
2024/02/14 04:49:32;;;;;;;9.63;4.65;;;1.50;99.90;;;;;;5061054;28;20053;-61
2024/02/14 04:51:59;;;;;;;8.48;3.72;;;1.40;99.90;;;;;;5063011;28;20048;-58
2024/02/14 04:54:26;;;;;;;7.97;4.10;;;1.40;99.90;;;;;;5062552;28;20471;-62
2024/02/14 04:56:54;;;;;;;12.82;3.80;;;1.40;99.90;;;;;;5063379;28;20067;-62
2024/02/14 04:59:26;;;;;;;12.88;4.50;;;1.40;99.90;;;;;;5062079;28;20052;-61
2024/02/14 05:01:53;;;;;;;14.25;4.00;;;1.30;99.90;;;;;;5062224;28;20060;-60
2024/02/14 05:04:21;;;;;;;11.00;4.97;;;1.30;99.90;;;;;;5064420;28;20071;-61
2024/02/14 05:06:49;;;;;;;8.77;4.07;;;1.30;99.90;;;;;;5066396;28;20126;-60
2024/02/14 05:09:17;;;;;;;17.55;4.05;;;1.20;99.90;;;;;;5065757;28;20047;-59
2024/02/14 05:11:44;;;;;;;13.95;5.68;;;1.20;99.90;;;;;;5065995;28;20093;-62
2024/02/14 05:14:12;;;;;;;12.07;4.43;;;1.10;99.90;;;;;;5066365;28;20036;-60
2024/02/14 05:16:38;;;;;;;13.90;6.65;;;1.00;99.90;;;;;;5063768;28;20050;-61
2024/02/14 05:19:05;;;;;;;8.77;4.30;;;1.00;99.90;;;;;;5066018;28;20055;-59
2024/02/14 05:21:32;;;;;;;12.43;4.53;;;0.90;99.90;;;;;;5065632;28;20067;-60
2024/02/14 05:23:59;;;;;;;10.40;4.57;;;0.90;99.90;;;;;;5065434;28;20073;-58
2024/02/14 05:26:26;;;;;;;8.15;5.15;;;0.80;99.90;;;;;;5065946;28;20118;-59
2024/02/14 05:28:53;;;;;;;14.45;4.18;;;0.70;99.90;;;;;;5065825;28;20053;-61
2024/02/14 05:31:20;;;;;;;14.02;4.72;;;0.70;99.90;;;;;;5065495;28;20080;-60
2024/02/14 05:33:47;;;;;;;5.22;3.53;;;0.70;99.90;;;;;;5065187;28;20060;-59
2024/02/14 05:36:15;;;;;;;16.35;5.03;;;0.70;99.90;;;;;;5066204;28;20055;-62
2024/02/14 05:38:42;;;;;;;10.40;4.20;;;0.60;99.90;;;;;;5065386;28;20059;-58
2024/02/14 05:41:08;;;;;;;8.85;4.28;;;0.60;99.90;;;;;;5065863;28;20699;-58
2024/02/14 05:43:35;;;;;;;12.13;6.10;;;0.60;99.90;;;;;;5065683;28;20048;-61
2024/02/14 05:46:02;;;;;;;13.75;4.75;;;0.70;99.90;;;;;;5064316;28;20537;-57
2024/02/14 05:48:29;;;;;;;13.98;5.40;;;0.70;99.90;;;;;;5065101;28;20048;-58
2024/02/14 05:50:56;;;;;;;12.07;4.78;;;0.70;99.90;;;;;;5065513;28;20178;-59
2024/02/14 05:53:23;;;;;;;17.23;7.78;;;0.80;99.90;;;;;;5063077;28;20419;-60
2024/02/14 05:55:51;;;;;;;20.33;7.25;;;0.90;99.90;;;;;;5065022;28;20048;-61
2024/02/14 05:58:17;;;;;;;10.70;6.50;;;0.90;99.90;;;;;;5065339;28;20376;-60
2024/02/14 06:00:44;;;;;;;12.98;6.43;;;0.90;99.90;;;;;;5063249;28;20072;-60
2024/02/14 06:03:11;;;;;;;11.70;5.63;;;0.80;99.90;;;;;;5062767;28;20053;-59
2024/02/14 06:05:38;;;;;;;16.33;5.53;;;0.80;99.90;;;;;;5064979;28;20174;-59
2024/02/14 06:08:06;;;;;;;10.63;5.82;;;0.80;99.90;;;;;;5064528;28;21394;-61
2024/02/14 06:10:34;;;;;;;11.82;5.55;;;0.70;99.90;;;;;;5065422;28;20098;-58
2024/02/14 06:13:01;;;;;;;14.00;5.13;;;0.70;99.90;;;;;;5064297;28;20052;-58
2024/02/14 06:15:28;;;;;;;13.82;5.45;;;0.70;99.90;;;;;;5063946;28;20182;-61
2024/02/14 06:17:55;;;;;;;10.00;5.22;;;0.70;99.90;;;;;;5064678;28;20036;-58
2024/02/14 06:20:22;;;;;;;10.27;4.85;;;0.70;99.90;;;;;;5064631;28;20506;-61
2024/02/14 06:22:51;;;;;;;15.07;5.25;;;0.70;99.90;;;;;;5063052;28;20131;-63
2024/02/14 06:25:30;;;;;;;;;;;0.70;99.90;;;;;;5065490;28;20209;-58
2024/02/14 06:27:57;;;;;;;13.43;6.35;;;0.70;99.90;;;;;;5063425;28;19935;-59
2024/02/14 06:30:24;;;;;;;18.60;7.43;;;0.80;99.90;;;;;;5063697;28;20048;-60
2024/02/14 06:33:00;;;;;;;13.20;6.88;;;0.80;99.90;;;;;;5065216;28;20043;-59
2024/02/14 06:35:29;;;;;;;15.45;7.75;;;0.80;99.90;;;;;;5063758;28;20180;-59
2024/02/14 06:37:57;;;;;;;13.10;7.32;;;0.80;99.90;;;;;;5064513;28;20043;-62
2024/02/14 06:40:31;;;;;;;18.90;7.28;;;0.80;99.90;;;;;;5062804;28;20048;-59
2024/02/14 06:42:59;;;;;;;16.70;6.97;;;0.90;99.90;;;;;;5059780;28;20165;-61
2024/02/14 06:45:30;;;;;;;13.15;7.18;;;0.90;99.90;;;;;;5060787;28;20037;-61
2024/02/14 06:47:57;;;;;;;16.20;8.05;;;0.90;99.90;;;;;;5061813;28;20044;-59
2024/02/14 06:50:28;;;;;;;12.98;8.18;;;0.90;99.90;;;;;;5062562;28;20060;-62
2024/02/14 06:52:59;;;;;;;21.27;9.95;;;1.00;99.90;;;;;;5062701;28;20495;-59
2024/02/14 06:55:28;;;;;;;20.42;9.57;;;1.00;99.90;;;;;;5062820;28;20750;-64
2024/02/14 06:57:55;;;;;;;16.15;9.27;;;1.00;99.90;;;;;;5063439;28;20048;-59
2024/02/14 07:00:22;;;;;;;15.15;10.65;;;1.10;99.90;;;;;;5063360;28;20166;-61
2024/02/14 07:02:49;;;;;;;13.05;9.38;;;1.10;99.90;;;;;;5062120;28;20044;-63
2024/02/14 07:05:16;;;;;;;20.23;11.43;;;1.10;99.90;;;;;;5063845;28;20483;-65
2024/02/14 07:07:43;;;;;;;25.52;11.02;;;1.20;99.90;;;;;;5063390;28;20045;-61
2024/02/14 07:10:10;;;;;;;20.40;10.25;;;1.20;99.90;;;;;;5061550;28;20165;-61
2024/02/14 07:12:37;;;;;;;22.00;9.88;;;1.20;99.90;;;;;;5062461;28;20574;-65
2024/02/14 07:15:05;;;;;;;24.92;10.60;;;1.30;99.90;;;;;;5061632;28;20080;-58
2024/02/14 07:17:32;;;;;;;19.50;10.65;;;1.30;99.90;;;;;;5063783;28;20048;-59
2024/02/14 07:20:00;;;;;;;16.88;9.80;;;1.40;99.90;;;;;;5095530;27;20040;-59
2024/02/14 07:22:27;;;;;;;16.63;9.30;;;1.40;99.90;;;;;;5062216;28;20048;-61
2024/02/14 07:24:54;;;;;;;21.00;9.82;;;1.40;99.90;;;;;;5062306;28;20045;-61
2024/02/14 07:27:23;;;;;;;23.98;10.13;;;1.50;99.90;;;;;;5062892;28;20055;-59
2024/02/14 07:29:50;;;;;;;22.15;9.93;;;1.50;99.90;;;;;;5063446;28;20063;-65
2024/02/14 07:32:17;;;;;;;18.40;9.20;;;1.50;99.90;;;;;;5062426;28;20055;-58
2024/02/14 07:34:44;;;;;;;14.10;8.32;;;1.60;99.90;;;;;;5063597;28;20044;-61
2024/02/14 07:37:11;;;;;;;26.33;12.52;;;1.60;99.90;;;;;;5063126;28;20040;-60
2024/02/14 07:39:38;;;;;;;14.95;8.98;;;1.70;99.90;;;;;;5062736;28;20072;-59
2024/02/14 07:42:05;;;;;;;15.70;8.88;;;1.70;99.90;;;;;;5063589;28;20547;-61
2024/02/14 07:44:32;;;;;;;22.77;8.85;;;1.70;99.90;;;;;;5063297;28;20052;-63
2024/02/14 07:46:59;;;;;;;14.43;7.80;;;1.80;99.90;;;;;;5063397;28;20125;-59
2024/02/14 07:49:30;;;;;;;;;;;1.80;99.90;;;;;;5063629;28;20789;-64
2024/02/14 07:51:57;;;;;;;18.55;8.57;;;1.90;99.90;;;;;;5062621;28;19932;-59
2024/02/14 07:54:24;;;;;;;21.30;8.63;;;2.00;99.90;;;;;;5058976;28;20064;-65
2024/02/14 07:56:52;;;;;;;19.40;9.43;;;2.10;99.90;;;;;;5060826;28;20048;-60
2024/02/14 07:59:20;;;;;;;20.75;7.68;;;2.10;99.90;;;;;;5061640;28;20045;-61
2024/02/14 08:01:47;;;;;;;13.43;7.82;;;2.10;99.90;;;;;;5061620;28;20127;-61
2024/02/14 08:04:15;;;;;;;22.17;8.75;;;2.20;99.90;;;;;;5062817;28;20044;-62
2024/02/14 08:06:45;;;;;;;12.23;8.02;;;2.20;99.90;;;;;;5061990;28;20051;-61
2024/02/14 08:09:12;;;;;;;20.60;8.80;;;2.20;99.90;;;;;;5062232;28;20045;-60
2024/02/14 08:11:39;;;;;;;17.50;7.53;;;2.30;99.90;;;;;;5063599;28;20123;-63
2024/02/14 08:14:06;;;;;;;23.38;9.77;;;2.30;99.90;;;;;;5062134;28;20059;-61
2024/02/14 08:16:33;;;;;;;15.63;7.68;;;2.30;99.90;;;;;;5061606;28;20485;-60
2024/02/14 08:19:00;;;;;;;21.42;8.82;;;2.40;99.90;;;;;;5063348;28;20071;-62
2024/02/14 08:21:27;;;;;;;22.40;8.52;;;2.40;99.90;;;;;;5062231;28;20044;-63
2024/02/14 08:23:58;;;;;;;17.73;7.05;;;2.40;99.90;;;;;;5062769;28;20538;-58
2024/02/14 08:26:27;;;;;;;22.05;8.27;;;2.50;99.90;;;;;;5063081;28;20044;-63
2024/02/14 08:28:55;;;;;;;21.08;10.07;;;2.40;99.90;;;;;;5062512;28;20063;-64
2024/02/14 08:31:22;;;;;;;16.55;8.20;;;2.40;99.90;;;;;;5062524;28;21370;-61
2024/02/14 08:33:49;;;;;;;26.70;7.43;;;2.40;99.90;;;;;;5062333;28;20097;-58
2024/02/14 08:36:18;;;;;;;16.00;8.40;;;2.40;99.90;;;;;;5062602;28;20520;-64
2024/02/14 08:38:46;;;;;;;18.27;6.63;;;2.40;99.90;;;;;;5064639;28;20052;-61
2024/02/14 08:41:14;;;;;;;21.10;8.10;;;2.40;99.90;;;;;;5067032;28;20094;-60
2024/02/14 08:43:41;;;;;;;22.73;8.60;;;2.40;99.90;;;;;;5066186;28;20104;-64
2024/02/14 08:46:13;;;;;;;13.25;7.63;;;2.40;99.90;;;;;;5066205;28;20746;-59
2024/02/14 08:48:45;;;;;;;24.13;8.02;;;2.40;99.90;;;;;;5066347;28;20048;-59
2024/02/14 08:51:16;;;;;;;22.27;8.02;;;2.40;99.90;;;;;;5065734;28;20075;-63
2024/02/14 08:53:44;;;;;;;15.80;7.30;;;2.50;99.90;;;;;;5066060;28;20067;-62
2024/02/14 08:56:12;;;;;;;18.27;6.75;;;2.50;99.90;;;;;;5065992;28;20055;-63
2024/02/14 08:58:39;;;;;;;18.65;8.15;;;2.50;99.90;;;;;;5065744;28;20064;-62
2024/02/14 09:01:07;;;;;;;14.27;6.80;;;2.60;99.90;;;;;;5065522;28;20049;-61
2024/02/14 09:03:47;;;;;;;22.38;7.43;;;2.60;99.90;;;;;;5064992;28;20471;-65
2024/02/14 09:06:20;;;;;;;21.83;7.25;;;2.60;99.90;;;;;;5065969;28;20487;-67
2024/02/14 09:08:47;;;;;;;17.58;6.50;;;2.70;99.90;;;;;;5066285;28;20046;-60
2024/02/14 09:11:14;;;;;;;14.82;6.47;;;2.70;99.90;;;;;;5065973;28;20109;-63
2024/02/14 09:13:41;;;;;;;19.08;7.93;;;2.80;99.90;;;;;;5065291;28;20182;-61
2024/02/14 09:16:10;;;;;;;17.80;6.75;;;2.80;99.90;;;;;;5065654;28;20127;-63
2024/02/14 09:18:37;;;;;;;15.52;6.75;;;2.90;99.90;;;;;;5065088;28;20043;-65
2024/02/14 09:21:05;;;;;;;11.48;6.50;;;3.00;99.90;;;;;;5065666;28;20044;-60
2024/02/14 09:23:33;;;;;;;13.43;6.63;;;3.00;99.90;;;;;;5065970;28;20052;-62
2024/02/14 09:26:01;;;;;;;13.48;6.03;;;3.10;99.90;;;;;;5065260;28;20041;-61
2024/02/14 09:28:28;;;;;;;15.98;6.03;;;3.10;99.90;;;;;;5064769;28;20036;-65
2024/02/14 09:30:55;;;;;;;15.40;6.95;;;3.10;99.90;;;;;;5065588;28;20527;-63
2024/02/14 09:33:22;;;;;;;14.60;8.25;;;3.10;99.90;;;;;;5065106;28;20052;-61
2024/02/14 09:35:51;;;;;;;18.55;7.15;;;3.20;99.90;;;;;;5065847;28;20827;-60
2024/02/14 09:38:19;;;;;;;13.20;6.68;;;3.20;99.90;;;;;;5064666;28;20075;-64
2024/02/14 09:40:46;;;;;;;7.47;4.93;;;3.30;99.90;;;;;;5064879;28;20040;-62
2024/02/14 09:43:34;;;;;;;18.80;6.07;;;3.30;99.90;;;;;;5065174;28;20032;-63
2024/02/14 09:46:03;;;;;;;14.60;5.32;;;3.30;99.90;;;;;;5064924;28;20071;-62
2024/02/14 09:48:30;;;;;;;18.60;5.38;;;3.30;99.90;;;;;;5064096;28;20044;-59
2024/02/14 09:50:59;;;;;;;12.98;4.88;;;3.40;99.90;;;;;;5065236;28;20063;-60
2024/02/14 09:53:29;;;;;;;11.48;5.03;;;3.40;99.90;;;;;;5065007;28;20072;-64
2024/02/14 09:55:57;;;;;;;13.32;6.15;;;3.50;99.90;;;;;;5064734;28;20644;-61
2024/02/14 09:58:24;;;;;;;15.27;5.32;;;3.50;99.90;;;;;;5063942;28;20041;-63
2024/02/14 10:00:51;;;;;;;8.02;4.55;;;3.60;99.90;;;;;;5065064;28;20048;-59
2024/02/14 10:03:18;;;;;;;13.65;4.60;;;3.70;99.90;;;;;;5065092;28;20128;-62
2024/02/14 10:05:45;;;;;;;16.60;6.30;;;3.60;99.90;;;;;;5064381;28;20750;-66
2024/02/14 10:08:13;;;;;;;9.88;4.47;;;3.70;99.90;;;;;;5064915;28;20045;-63
2024/02/14 10:10:40;;;;;;;16.58;4.10;;;3.80;99.90;;;;;;5063902;28;20071;-60
2024/02/14 10:13:07;;;;;;;8.88;4.40;;;3.90;99.90;;;;;;5064733;28;20106;-61
2024/02/14 10:15:34;;;;;;;8.25;4.57;;;3.90;99.90;;;;;;5064762;28;20044;-62
2024/02/14 10:18:04;;;;;;;10.23;4.15;;;3.90;99.90;;;;;;5064250;28;20526;-61
2024/02/14 10:20:34;;;;;;;11.82;3.92;;;3.90;99.90;;;;;;5064009;28;20048;-61
2024/02/14 10:23:03;;;;;;;16.42;5.90;;;3.90;99.90;;;;;;5064221;28;20041;-63
2024/02/14 10:25:33;;;;;;;11.80;4.65;;;3.80;99.90;;;;;;5064527;28;20175;-60
2024/02/14 10:28:05;;;;;;;6.22;4.65;;;3.90;99.90;;;;;;5063938;28;20036;-60
2024/02/14 10:30:32;;;;;;;12.40;4.30;;;3.90;99.90;;;;;;5096586;27;20578;-63
2024/02/14 10:32:59;;;;;;;9.38;4.15;;;4.00;99.90;;;;;;5063984;28;20048;-63
2024/02/14 10:35:41;;;;;;;14.63;4.38;;;4.00;99.90;;;;;;5064658;28;20048;-61
2024/02/14 10:38:12;;;;;;;7.95;5.03;;;4.00;99.90;;;;;;5063601;28;20094;-62
2024/02/14 10:40:39;;;;;;;10.18;4.78;;;4.00;99.90;;;;;;5064271;28;20040;-62
2024/02/14 10:43:09;;;;;;;8.95;4.30;;;4.00;99.90;;;;;;5064393;28;20041;-62
2024/02/14 10:45:36;;;;;;;9.95;4.82;;;3.90;99.90;;;;;;5063808;28;20048;-63
2024/02/14 10:48:13;;;;;;;13.07;7.65;;;3.90;99.90;;;;;;5064862;28;20045;-58
2024/02/14 10:50:41;;;;;;;14.88;6.35;;;3.90;99.90;;;;;;5064695;28;21017;-62
2024/02/14 10:53:17;;;;;;;12.20;5.28;;;3.90;99.90;;;;;;5063950;28;20044;-62
2024/02/14 10:55:48;;;;;;;13.82;5.38;;;4.00;99.90;;;;;;5057635;28;20059;-65
2024/02/14 10:58:18;;;;;;;20.90;7.03;;;4.00;99.90;;;;;;5062504;28;20041;-64
2024/02/14 11:00:46;;;;;;;13.45;7.93;;;4.10;99.90;;;;;;5062196;28;20048;-68
2024/02/14 11:03:17;;;;;;;16.33;6.85;;;4.20;99.90;;;;;;5060284;28;20045;-62
2024/02/14 11:05:49;;;;;;;19.90;8.25;;;4.20;99.90;;;;;;5061610;28;20047;-64
2024/02/14 11:08:21;;;;;;;10.95;7.85;;;4.30;99.90;;;;;;5062399;28;20094;-63
2024/02/14 11:10:56;;;;;;;10.82;5.97;;;4.30;99.90;;;;;;5062181;28;21337;-61
2024/02/14 11:13:28;;;;;;;13.88;6.32;;;4.30;99.90;;;;;;5061659;28;20043;-64
2024/02/14 11:15:56;;;;;;;14.55;6.28;;;4.30;99.90;;;;;;5059138;28;20056;-60
2024/02/14 11:18:29;;;;;;;14.48;5.40;;;4.30;99.90;;;;;;5061741;28;20079;-59
2024/02/14 11:21:00;;;;;;;12.60;6.00;;;4.30;99.90;;;;;;5063502;28;20048;-59
2024/02/14 11:23:31;;;;;;;17.95;6.05;;;4.30;99.90;;;;;;5063339;28;20142;-64
2024/02/14 11:26:02;;;;;;;;;;;4.40;99.90;;;;;;5063638;28;20555;-64
2024/02/14 11:28:30;;;;;;;15.18;5.43;;;4.40;99.90;;;;;;5063155;28;20063;-61
2024/02/14 11:31:03;;;;;;;12.73;6.43;;;4.40;99.90;;;;;;5063180;28;20080;-61
2024/02/14 11:33:30;;;;;;;11.20;6.15;;;4.40;99.90;;;;;;5062615;28;20048;-60
2024/02/14 11:35:58;;;;;;;16.65;5.95;;;4.50;99.90;;;;;;5063985;28;20082;-64
2024/02/14 11:38:26;;;;;;;14.48;5.75;;;4.50;99.90;;;;;;5062108;28;20804;-63
2024/02/14 11:40:56;;;;;;;10.50;6.18;;;4.50;99.90;;;;;;5063061;28;20131;-64
2024/02/14 11:43:24;;;;;;;9.60;5.35;;;4.50;99.90;;;;;;5062469;28;20055;-61
2024/02/14 11:45:52;;;;;;;13.73;6.85;;;4.50;99.90;;;;;;5061460;28;20048;-60
2024/02/14 11:48:20;;;;;;;13.18;6.65;;;4.50;99.90;;;;;;5062054;28;20055;-61
2024/02/14 11:50:47;;;;;;;11.50;5.55;;;4.50;99.90;;;;;;5061031;28;20495;-65
2024/02/14 11:53:18;;;;;;;13.80;6.43;;;4.50;99.90;;;;;;5059761;28;20049;-62
2024/02/14 11:55:49;;;;;;;13.32;6.88;;;4.60;99.90;;;;;;5062365;28;20052;-60
2024/02/14 11:58:17;;;;;;;14.63;7.05;;;4.80;99.90;;;;;;5062913;28;20045;-62
2024/02/14 12:00:46;;;;;;;21.10;8.35;;;4.90;99.90;;;;;;5063155;28;20047;-59
2024/02/14 12:03:20;;;;;;;14.02;6.95;;;4.90;99.90;;;;;;5062650;28;20049;-60
2024/02/14 12:05:52;;;;;;;19.35;7.10;;;5.00;99.90;;;;;;5062763;28;20048;-63
2024/02/14 12:08:21;;;;;;;13.57;6.60;;;5.00;99.90;;;;;;5062770;28;20051;-63
2024/02/14 12:10:51;;;;;;;14.85;6.30;;;5.00;99.90;;;;;;5062486;28;20775;-65
2024/02/14 12:13:21;;;;;;;21.08;6.53;;;4.90;99.90;;;;;;5066426;28;20044;-61
2024/02/14 12:15:50;;;;;;;17.13;6.15;;;4.90;99.90;;;;;;5066471;28;20048;-60
2024/02/14 12:18:18;;;;;;;17.90;8.48;;;4.80;99.90;;;;;;5066977;28;20075;-61
2024/02/14 12:20:49;;;;;;;15.27;7.18;;;4.80;99.90;;;;;;5068235;28;20040;-61
2024/02/14 12:23:20;;;;;;;21.50;8.20;;;4.80;99.90;;;;;;5066014;28;20074;-61
2024/02/14 12:25:47;;;;;;;19.05;7.65;;;4.70;99.90;;;;;;5066445;28;20052;-62
2024/02/14 12:28:18;;;;;;;26.30;7.85;;;4.70;99.90;;;;;;5066151;28;20051;-63
2024/02/14 12:30:49;;;;;;;26.05;8.98;;;4.60;99.90;;;;;;5066246;28;20040;-62
2024/02/14 12:33:17;;;;;;;23.33;8.57;;;4.60;99.90;;;;;;5066446;28;20587;-65
2024/02/14 12:35:46;;;;;;;16.45;9.00;;;4.60;99.90;;;;;;5066365;28;20041;-61
2024/02/14 12:38:14;;;;;;;23.20;8.45;;;4.60;99.90;;;;;;5066710;28;20048;-61
2024/02/14 12:40:42;;;;;;;20.15;10.13;;;4.60;99.90;;;;;;5067304;28;20144;-63
2024/02/14 12:43:12;;;;;;;22.42;8.07;;;4.60;99.90;;;;;;5066343;28;20048;-63
2024/02/14 12:45:40;;;;;;;24.35;9.98;;;4.70;99.90;;;;;;5065551;28;20052;-64
2024/02/14 12:48:08;;;;;;;19.70;9.00;;;4.70;99.90;;;;;;5065214;28;20048;-63
2024/02/14 12:50:37;;;;;;;20.70;7.88;;;4.70;99.90;;;;;;5066359;28;20109;-60
2024/02/14 12:53:06;;;;;;;17.05;8.98;;;4.70;99.90;;;;;;5065658;28;20125;-61